createdAt,value
2019-03-08T00:00:31.680Z,99.99
2019-03-08T00:01:31.690Z,99.99
2019-03-08T00:02:31.711Z,99.99
2019-03-08T00:03:31.732Z,99.99
2019-03-08T00:04:31.785Z,99.99
2019-03-08T00:05:31.759Z,99.99
2019-03-08T00:06:31.759Z,99.99
2019-03-08T00:07:31.773Z,99.99
2019-03-08T00:08:31.821Z,99.99
2019-03-08T00:09:31.787Z,99.99
2019-03-08T00:10:31.790Z,99.99
2019-03-08T00:11:31.799Z,99.99
2019-03-08T00:12:31.809Z,99.99
2019-03-08T00:13:31.841Z,99.99
2019-03-08T00:14:31.835Z,99.99
2019-03-08T00:15:31.848Z,99.99
2019-03-08T00:16:31.856Z,99.99
2019-03-08T00:17:31.879Z,99.99
2019-03-08T00:18:31.879Z,99.99
2019-03-08T00:19:31.890Z,99.99
2019-03-08T00:20:31.926Z,99.99
2019-03-08T00:21:31.926Z,99.99
2019-03-08T00:22:31.925Z,99.99
2019-03-08T00:23:31.940Z,99.99
2019-03-08T00:24:31.944Z,99.99
2019-03-08T00:25:31.958Z,99.99
2019-03-08T00:26:31.970Z,99.99
2019-03-08T00:27:31.984Z,99.99
2019-03-08T00:28:31.997Z,99.99
2019-03-08T00:29:32.004Z,99.99
2019-03-08T00:30:32.016Z,99.99
2019-03-08T00:31:32.027Z,99.99
2019-03-08T00:32:32.034Z,99.99
2019-03-08T00:33:32.048Z,99.99
2019-03-08T00:34:32.090Z,99.99
2019-03-08T00:35:32.119Z,99.99
2019-03-08T00:36:32.082Z,99.99
2019-03-08T00:37:32.093Z,99.99
2019-03-08T00:38:32.119Z,99.99
2019-03-08T00:39:32.114Z,99.99
2019-03-08T00:40:32.132Z,99.99
2019-03-08T00:41:32.139Z,99.99
2019-03-08T00:42:32.148Z,99.99
2019-03-08T00:43:32.199Z,99.99
2019-03-08T00:44:32.168Z,99.99
2019-03-08T00:45:32.193Z,99.99
2019-03-08T00:46:32.206Z,99.99
2019-03-08T00:47:32.205Z,99.99
2019-03-08T00:48:32.218Z,99.99
2019-03-08T00:49:32.229Z,99.99
2019-03-08T00:50:32.242Z,99.99
2019-03-08T00:51:32.252Z,99.99
2019-03-08T00:52:33.045Z,99.99
2019-03-08T00:53:32.275Z,99.99
2019-03-08T00:54:32.282Z,99.99
2019-03-08T00:55:32.291Z,99.99
2019-03-08T00:56:32.301Z,99.99
2019-03-08T00:57:32.316Z,99.99
2019-03-08T00:58:32.328Z,99.99
2019-03-08T00:59:32.337Z,99.99
2019-03-08T01:00:32.358Z,99.99
2019-03-08T01:01:32.362Z,99.99
2019-03-08T01:02:32.380Z,99.99
2019-03-08T01:03:32.380Z,99.99
2019-03-08T01:04:32.394Z,99.99
2019-03-08T01:05:32.402Z,99.99
2019-03-08T01:06:32.413Z,99.99
2019-03-08T01:07:32.439Z,99.99
2019-03-08T01:08:32.434Z,99.99
2019-03-08T01:09:32.452Z,99.99
2019-03-08T01:10:32.463Z,99.99
2019-03-08T01:11:32.488Z,99.99
2019-03-08T01:12:32.481Z,99.99
2019-03-08T01:13:32.508Z,99.99
2019-03-08T01:14:32.569Z,99.99
2019-03-08T01:15:32.589Z,99.99
2019-03-08T01:16:32.557Z,99.99
2019-03-08T01:17:32.539Z,99.99
2019-03-08T01:18:32.551Z,99.99
2019-03-08T01:19:32.556Z,99.99
2019-03-08T01:20:32.575Z,99.99
2019-03-08T01:22:32.591Z,99.99
2019-03-08T01:23:32.598Z,99.99
2019-03-08T01:24:32.609Z,99.99
2019-03-08T01:25:32.623Z,99.99
2019-03-08T01:26:32.634Z,99.99
2019-03-08T01:27:32.645Z,99.99
2019-03-08T01:28:32.659Z,99.99
2019-03-08T01:29:32.673Z,99.99
2019-03-08T01:30:32.687Z,99.99
2019-03-08T01:31:32.688Z,99.99
2019-03-08T01:32:32.697Z,99.99
2019-03-08T01:33:32.709Z,99.99
2019-03-08T01:34:32.720Z,99.99
2019-03-08T01:35:32.730Z,99.99
2019-03-08T01:36:32.738Z,99.99
2019-03-08T01:37:32.770Z,99.99
2019-03-08T01:38:32.767Z,99.99
2019-03-08T01:39:33.195Z,99.99
2019-03-08T01:40:32.791Z,99.99
2019-03-08T01:41:32.804Z,99.99
2019-03-08T01:42:32.809Z,99.99
2019-03-08T01:43:33.004Z,99.99
2019-03-08T01:44:33.926Z,99.99
2019-03-08T01:45:32.840Z,99.99
2019-03-08T01:46:32.854Z,99.99
2019-03-08T01:47:32.864Z,99.99
2019-03-08T01:48:32.875Z,99.99
2019-03-08T01:49:32.887Z,99.99
2019-03-08T01:50:32.893Z,99.99
2019-03-08T01:51:32.914Z,99.99
2019-03-08T01:52:32.917Z,99.99
2019-03-08T01:53:32.928Z,99.99
2019-03-08T01:54:32.944Z,99.99
2019-03-08T01:55:33.021Z,99.99
2019-03-08T01:56:33.065Z,99.99
2019-03-08T01:57:32.973Z,99.99
2019-03-08T01:58:32.998Z,99.99
2019-03-08T01:59:32.993Z,99.99
2019-03-08T02:00:33.006Z,99.99
2019-03-08T02:01:33.018Z,99.99
2019-03-08T02:02:33.026Z,99.99
2019-03-08T02:03:33.037Z,99.99
2019-03-08T02:04:33.057Z,99.99
2019-03-08T02:05:33.059Z,99.99
2019-03-08T02:06:33.069Z,99.99
2019-03-08T02:07:33.300Z,99.99
2019-03-08T02:08:33.092Z,99.99
2019-03-08T02:09:33.101Z,99.99
2019-03-08T02:10:33.174Z,99.99
2019-03-08T02:11:33.242Z,99.99
2019-03-08T02:12:33.132Z,99.99
2019-03-08T02:13:33.140Z,99.99
2019-03-08T02:14:33.159Z,99.99
2019-03-08T02:15:33.177Z,99.99
2019-03-08T02:16:33.282Z,99.99
2019-03-08T02:17:33.199Z,99.99
2019-03-08T02:18:33.210Z,99.99
2019-03-08T02:19:33.221Z,99.99
2019-03-08T02:20:33.224Z,99.99
2019-03-08T02:21:33.229Z,99.99
2019-03-08T02:22:33.236Z,99.99
2019-03-08T02:23:33.249Z,99.99
2019-03-08T02:24:33.258Z,99.99
2019-03-08T02:25:33.269Z,99.99
2019-03-08T02:26:33.282Z,99.99
2019-03-08T02:27:33.341Z,99.99
2019-03-08T02:28:33.323Z,99.99
2019-03-08T02:29:33.319Z,99.99
2019-03-08T02:30:33.332Z,99.99
2019-03-08T02:31:33.339Z,99.99
2019-03-08T02:32:33.343Z,99.99
2019-03-08T02:33:33.358Z,99.99
2019-03-08T02:34:33.380Z,99.99
2019-03-08T02:35:33.383Z,99.99
2019-03-08T02:36:33.386Z,99.99
2019-03-08T02:37:33.398Z,99.99
2019-03-08T02:38:33.410Z,99.99
2019-03-08T02:39:33.414Z,99.99
2019-03-08T02:40:33.425Z,99.99
2019-03-08T02:41:33.495Z,99.99
2019-03-08T02:42:33.445Z,99.99
2019-03-08T02:43:33.461Z,99.99
2019-03-08T02:44:33.467Z,99.99
2019-03-08T02:45:33.479Z,99.99
2019-03-08T02:46:33.496Z,99.99
2019-03-08T02:47:33.552Z,99.99
2019-03-08T02:48:33.519Z,99.99
2019-03-08T02:49:33.523Z,99.99
2019-03-08T02:50:33.540Z,99.99
2019-03-08T02:51:33.552Z,99.99
2019-03-08T02:52:33.552Z,99.99
2019-03-08T02:53:33.564Z,99.99
2019-03-08T02:55:33.716Z,99.99
2019-03-08T02:56:34.154Z,99.99
2019-03-08T02:57:33.609Z,99.99
2019-03-08T02:58:33.626Z,99.99
2019-03-08T02:59:33.696Z,99.99
2019-03-08T03:00:33.677Z,99.99
2019-03-08T03:01:33.662Z,99.99
2019-03-08T03:02:33.661Z,99.99
2019-03-08T03:03:33.672Z,99.99
2019-03-08T03:04:33.684Z,99.99
2019-03-08T03:05:33.701Z,99.99
2019-03-08T03:06:33.702Z,99.99
2019-03-08T03:07:33.722Z,99.99
2019-03-08T03:08:33.722Z,99.99
2019-03-08T03:09:33.740Z,99.99
2019-03-08T03:10:33.744Z,99.99
2019-03-08T03:11:33.761Z,99.99
2019-03-08T03:12:33.781Z,99.99
2019-03-08T03:13:33.782Z,99.99
2019-03-08T03:14:33.877Z,99.99
2019-03-08T03:15:33.805Z,99.99
2019-03-08T03:16:33.808Z,99.99
2019-03-08T03:17:33.825Z,99.99
2019-03-08T03:18:33.836Z,99.99
2019-03-08T03:19:33.845Z,99.99
2019-03-08T03:20:33.862Z,99.99
2019-03-08T03:21:33.863Z,99.99
2019-03-08T03:22:33.875Z,99.99
2019-03-08T03:23:33.890Z,99.99
2019-03-08T03:24:33.900Z,99.99
2019-03-08T03:25:33.921Z,99.99
2019-03-08T03:26:33.920Z,99.99
2019-03-08T03:27:33.933Z,99.99
2019-03-08T03:28:33.949Z,99.99
2019-03-08T03:29:33.953Z,99.99
2019-03-08T03:30:33.969Z,99.99
2019-03-08T03:31:34.108Z,99.99
2019-03-08T03:32:33.987Z,99.99
2019-03-08T03:33:33.998Z,99.99
2019-03-08T03:34:34.008Z,99.99
2019-03-08T03:35:34.030Z,99.99
2019-03-08T03:36:34.027Z,99.99
2019-03-08T03:37:34.048Z,99.99
2019-03-08T03:38:34.053Z,99.99
2019-03-08T03:39:34.063Z,99.99
2019-03-08T03:40:34.070Z,99.99
2019-03-08T03:41:34.085Z,99.99
2019-03-08T03:42:34.103Z,99.99
2019-03-08T03:43:34.107Z,99.99
2019-03-08T03:44:34.469Z,99.99
2019-03-08T03:45:34.166Z,99.99
2019-03-08T03:46:34.144Z,99.99
2019-03-08T03:47:34.155Z,99.99
2019-03-08T03:48:34.157Z,99.99
2019-03-08T03:49:34.311Z,99.99
2019-03-08T03:50:34.222Z,99.99
2019-03-08T03:51:34.195Z,99.99
2019-03-08T03:52:34.203Z,99.99
2019-03-08T03:53:34.218Z,99.99
2019-03-08T03:54:34.232Z,99.99
2019-03-08T03:55:34.273Z,99.99
2019-03-08T03:56:34.256Z,99.99
2019-03-08T03:57:34.873Z,99.99
2019-03-08T03:58:34.274Z,99.99
2019-03-08T03:59:34.283Z,99.99
2019-03-08T04:00:34.295Z,99.99
2019-03-08T04:01:34.304Z,99.99
2019-03-08T04:02:34.315Z,99.99
2019-03-08T04:03:34.389Z,99.99
2019-03-08T04:04:34.350Z,99.99
2019-03-08T04:05:34.383Z,99.99
2019-03-08T04:06:34.358Z,99.99
2019-03-08T04:07:34.373Z,99.99
2019-03-08T04:08:34.387Z,99.99
2019-03-08T04:09:34.406Z,99.99
2019-03-08T04:10:34.403Z,99.99
2019-03-08T04:11:34.412Z,99.99
2019-03-08T04:12:34.424Z,99.99
2019-03-08T04:13:34.435Z,99.99
2019-03-08T04:14:34.449Z,99.99
2019-03-08T04:15:34.459Z,99.99
2019-03-08T04:16:34.486Z,99.99
2019-03-08T04:17:34.648Z,99.99
2019-03-08T04:18:34.490Z,99.99
2019-03-08T04:19:34.503Z,99.99
2019-03-08T04:20:34.510Z,99.99
2019-03-08T04:21:34.536Z,99.99
2019-03-08T04:22:34.591Z,99.99
2019-03-08T04:23:34.592Z,99.99
2019-03-08T04:24:35.326Z,99.99
2019-03-08T04:25:35.062Z,99.99
2019-03-08T04:26:34.808Z,99.99
2019-03-08T04:29:34.613Z,99.99
2019-03-08T04:30:34.632Z,99.99
2019-03-08T04:31:34.636Z,99.99
2019-03-08T04:33:34.656Z,99.99
2019-03-08T04:34:34.663Z,99.99
2019-03-08T04:35:34.678Z,99.99
2019-03-08T04:36:34.699Z,99.99
2019-03-08T04:37:34.710Z,99.99
2019-03-08T04:38:34.718Z,99.99
2019-03-08T04:39:34.725Z,99.99
2019-03-08T04:40:34.767Z,99.99
2019-03-08T04:41:34.773Z,99.99
2019-03-08T04:42:34.759Z,99.99
2019-03-08T04:43:34.774Z,99.99
2019-03-08T04:44:34.783Z,99.99
2019-03-08T04:45:34.792Z,99.99
2019-03-08T04:46:34.799Z,99.99
2019-03-08T04:47:34.935Z,99.99
2019-03-08T04:48:34.820Z,99.99
2019-03-08T04:49:34.822Z,99.99
2019-03-08T04:50:34.883Z,99.99
2019-03-08T04:51:34.844Z,99.99
2019-03-08T04:52:34.887Z,99.99
2019-03-08T04:53:35.073Z,99.99
2019-03-08T04:54:34.888Z,99.99
2019-03-08T04:55:34.890Z,99.99
2019-03-08T04:56:34.903Z,99.99
2019-03-08T04:57:34.910Z,99.99
2019-03-08T04:58:34.934Z,99.99
2019-03-08T04:59:34.935Z,99.99
2019-03-08T05:00:34.946Z,99.99
2019-03-08T05:01:34.958Z,99.99
2019-03-08T05:02:34.965Z,99.99
2019-03-08T05:03:34.976Z,99.99
2019-03-08T05:04:34.999Z,99.99
2019-03-08T05:05:35.008Z,99.99
2019-03-08T05:06:35.010Z,99.99
2019-03-08T05:07:35.027Z,99.99
2019-03-08T05:08:35.033Z,99.99
2019-03-08T05:09:35.043Z,99.99
2019-03-08T05:10:35.054Z,99.99
2019-03-08T05:11:35.075Z,99.99
2019-03-08T05:12:35.084Z,99.99
2019-03-08T05:13:35.087Z,99.99
2019-03-08T05:14:35.098Z,99.99
2019-03-08T05:15:35.112Z,99.99
2019-03-08T05:16:35.120Z,99.99
2019-03-08T05:17:35.134Z,99.99
2019-03-08T05:18:35.185Z,99.99
2019-03-08T05:19:35.157Z,99.99
2019-03-08T05:20:35.173Z,99.99
2019-03-08T05:21:35.178Z,99.99
2019-03-08T05:22:35.192Z,99.99
2019-03-08T05:23:35.201Z,99.99
2019-03-08T05:24:35.212Z,99.99
2019-03-08T05:25:35.272Z,99.99
2019-03-08T05:26:35.238Z,99.99
2019-03-08T05:27:35.246Z,99.99
2019-03-08T05:28:35.461Z,99.99
2019-03-08T05:29:35.565Z,99.99
2019-03-08T05:30:35.278Z,99.99
2019-03-08T05:31:35.299Z,99.99
2019-03-08T05:32:35.305Z,99.99
2019-03-08T05:33:35.318Z,99.99
2019-03-08T05:34:35.329Z,99.99
2019-03-08T05:35:35.436Z,99.99
2019-03-08T05:36:35.345Z,99.99
2019-03-08T05:37:35.357Z,99.99
2019-03-08T05:38:35.379Z,99.99
2019-03-08T05:39:35.382Z,99.99
2019-03-08T05:40:35.396Z,99.99
2019-03-08T05:41:35.401Z,99.99
2019-03-08T05:42:35.416Z,99.99
2019-03-08T05:43:35.422Z,99.99
2019-03-08T05:44:35.436Z,99.99
2019-03-08T05:45:35.446Z,99.99
2019-03-08T05:46:35.458Z,99.99
2019-03-08T05:47:35.477Z,99.99
2019-03-08T05:48:35.486Z,99.99
2019-03-08T05:49:35.498Z,99.99
2019-03-08T05:50:35.501Z,99.99
2019-03-08T05:51:35.599Z,99.99
2019-03-08T05:52:35.524Z,99.99
2019-03-08T05:53:35.532Z,99.99
2019-03-08T05:54:35.554Z,99.99
2019-03-08T05:55:35.568Z,99.99
2019-03-08T05:56:36.459Z,99.99
2019-03-08T05:57:35.682Z,99.99
2019-03-08T05:58:35.590Z,99.99
2019-03-08T05:59:35.602Z,99.99
2019-03-08T06:00:35.981Z,99.99
2019-03-08T06:01:35.621Z,99.99
2019-03-08T06:02:36.153Z,99.99
2019-03-08T06:03:35.823Z,99.99
2019-03-08T06:04:35.738Z,99.99
2019-03-08T06:05:35.707Z,99.99
2019-03-08T06:06:35.702Z,99.99
2019-03-08T06:07:35.689Z,99.99
2019-03-08T06:08:35.697Z,99.99
2019-03-08T06:09:35.709Z,99.99
2019-03-08T06:10:35.725Z,99.99
2019-03-08T06:11:35.735Z,99.99
2019-03-08T06:12:35.760Z,99.99
2019-03-08T06:13:35.801Z,99.99
2019-03-08T06:14:35.766Z,99.99
2019-03-08T06:15:35.781Z,99.99
2019-03-08T06:16:35.816Z,99.99
2019-03-08T06:17:35.802Z,99.99
2019-03-08T06:18:35.837Z,99.99
2019-03-08T06:19:36.070Z,99.99
2019-03-08T06:20:35.864Z,99.99
2019-03-08T06:21:35.846Z,99.99
2019-03-08T06:22:35.953Z,99.99
2019-03-08T06:23:35.883Z,99.99
2019-03-08T06:24:35.900Z,99.99
2019-03-08T06:25:35.898Z,99.99
2019-03-08T06:26:35.900Z,99.99
2019-03-08T06:28:35.941Z,99.99
2019-03-08T06:29:35.950Z,99.99
2019-03-08T06:30:36.005Z,99.99
2019-03-08T06:31:35.954Z,99.99
2019-03-08T06:32:35.970Z,99.99
2019-03-08T06:33:35.978Z,99.99
2019-03-08T06:34:35.990Z,99.99
2019-03-08T06:36:36.027Z,99.99
2019-03-08T06:37:36.068Z,99.99
2019-03-08T06:38:36.036Z,99.99
2019-03-08T06:39:36.161Z,99.99
2019-03-08T06:40:36.058Z,99.99
2019-03-08T06:41:36.070Z,99.99
2019-03-08T06:42:36.077Z,99.99
2019-03-08T06:43:36.097Z,99.99
2019-03-08T06:44:36.935Z,99.99
2019-03-08T06:45:36.110Z,99.99
2019-03-08T06:46:36.119Z,99.99
2019-03-08T06:47:36.130Z,99.99
2019-03-08T06:48:36.140Z,99.99
2019-03-08T06:49:36.151Z,99.99
2019-03-08T06:50:36.165Z,99.99
2019-03-08T06:51:36.200Z,99.99
2019-03-08T06:52:36.195Z,99.99
2019-03-08T06:53:36.208Z,99.99
2019-03-08T06:54:36.215Z,99.99
2019-03-08T06:55:36.227Z,99.99
2019-03-08T06:56:36.229Z,99.99
2019-03-08T06:57:36.248Z,99.99
2019-03-08T06:58:36.259Z,99.99
2019-03-08T07:00:36.341Z,99.99
2019-03-08T07:01:36.550Z,99.99
2019-03-08T07:02:36.569Z,99.99
2019-03-08T07:03:36.805Z,99.99
2019-03-08T07:04:36.327Z,99.99
2019-03-08T07:05:36.325Z,99.99
2019-03-08T07:06:36.339Z,99.99
2019-03-08T07:07:36.358Z,99.99
2019-03-08T07:08:36.363Z,99.99
2019-03-08T07:09:36.483Z,99.99
2019-03-08T07:10:36.383Z,99.99
2019-03-08T07:11:36.400Z,99.99
2019-03-08T07:12:36.410Z,99.99
2019-03-08T07:13:36.418Z,99.99
2019-03-08T07:14:36.435Z,99.99
2019-03-08T07:15:36.447Z,99.99
2019-03-08T07:16:37.067Z,99.99
2019-03-08T07:17:36.461Z,99.99
2019-03-08T07:18:36.482Z,99.99
2019-03-08T07:19:40.986Z,99.99
2019-03-08T07:20:36.493Z,99.99
2019-03-08T07:21:36.503Z,99.99
2019-03-08T07:22:36.521Z,99.99
2019-03-08T07:23:36.534Z,99.99
2019-03-08T07:24:36.548Z,99.99
2019-03-08T07:25:36.554Z,99.99
2019-03-08T07:26:36.575Z,99.99
2019-03-08T07:27:36.582Z,99.99
2019-03-08T07:28:36.584Z,99.99
2019-03-08T07:29:36.596Z,99.99
2019-03-08T07:30:36.602Z,99.99
2019-03-08T07:31:36.618Z,99.99
2019-03-08T07:32:36.661Z,99.99
2019-03-08T07:33:36.639Z,99.99
2019-03-08T07:34:36.653Z,99.99
2019-03-08T07:35:36.682Z,99.99
2019-03-08T07:36:36.676Z,99.99
2019-03-08T07:37:36.687Z,99.99
2019-03-08T07:38:36.693Z,99.99
2019-03-08T07:39:36.705Z,99.99
2019-03-08T07:40:36.726Z,99.99
2019-03-08T07:41:36.760Z,99.99
2019-03-08T07:42:36.762Z,99.99
2019-03-08T07:43:36.754Z,99.99
2019-03-08T07:44:36.771Z,99.99
2019-03-08T07:45:36.777Z,99.99
2019-03-08T07:46:36.781Z,99.99
2019-03-08T07:47:36.893Z,99.99
2019-03-08T07:48:37.155Z,99.99
2019-03-08T07:49:38.733Z,99.99
2019-03-08T07:50:36.837Z,99.99
2019-03-08T07:51:36.854Z,99.99
2019-03-08T07:52:36.862Z,99.99
2019-03-08T07:53:36.874Z,99.99
2019-03-08T07:55:36.890Z,99.99
2019-03-08T07:56:37.041Z,99.99
2019-03-08T07:57:36.936Z,99.99
2019-03-08T07:58:36.936Z,99.99
2019-03-08T07:59:36.940Z,99.99
2019-03-08T08:01:37.030Z,99.99
2019-03-08T08:03:38.219Z,99.99
2019-03-08T08:04:36.984Z,99.99
2019-03-08T08:07:37.769Z,99.99
2019-03-08T08:09:37.220Z,99.99
2019-03-08T08:10:37.776Z,99.99
2019-03-08T08:12:37.119Z,99.99
2019-03-08T08:13:37.132Z,99.99
2019-03-08T08:14:39.802Z,99.99
2019-03-08T08:15:37.123Z,99.99
2019-03-08T08:16:37.283Z,99.99
2019-03-08T08:17:37.150Z,99.99
2019-03-08T08:18:37.177Z,99.99
2019-03-08T08:19:37.161Z,99.99
2019-03-08T08:20:37.164Z,99.99
2019-03-08T08:21:37.187Z,99.99
2019-03-08T08:22:37.191Z,99.99
2019-03-08T08:24:37.215Z,99.99
2019-03-08T08:25:37.237Z,99.99
2019-03-08T08:26:37.233Z,99.99
2019-03-08T08:27:37.260Z,99.99
2019-03-08T08:28:37.265Z,99.99
2019-03-08T08:29:37.280Z,99.99
2019-03-08T08:30:37.300Z,99.99
2019-03-08T08:31:37.324Z,99.99
2019-03-08T08:32:37.321Z,99.99
2019-03-08T08:33:37.778Z,99.99
2019-03-08T08:34:37.332Z,99.99
2019-03-08T08:35:37.390Z,99.99
2019-03-08T08:36:37.349Z,99.99
2019-03-08T08:37:37.361Z,99.99
2019-03-08T08:38:37.376Z,99.99
2019-03-08T08:39:37.392Z,99.99
2019-03-08T08:40:37.412Z,99.99
2019-03-08T08:41:37.409Z,99.99
2019-03-08T08:42:37.435Z,99.99
2019-03-08T08:43:37.437Z,99.99
2019-03-08T08:44:37.480Z,99.99
2019-03-08T08:45:37.464Z,99.99
2019-03-08T08:46:37.515Z,99.99
2019-03-08T08:47:37.494Z,99.99
2019-03-08T08:48:37.520Z,99.99
2019-03-08T08:49:37.511Z,99.99
2019-03-08T08:50:37.566Z,99.99
2019-03-08T08:51:37.527Z,99.99
2019-03-08T08:52:37.551Z,99.99
2019-03-08T08:53:37.666Z,99.99
2019-03-08T08:54:37.575Z,99.99
2019-03-08T08:55:37.572Z,99.99
2019-03-08T08:56:37.589Z,99.99
2019-03-08T08:57:37.601Z,99.99
2019-03-08T08:58:37.658Z,99.99
2019-03-08T08:59:37.750Z,99.99
2019-03-08T09:00:37.643Z,99.99
2019-03-08T09:01:37.647Z,99.99
2019-03-08T09:02:37.664Z,99.99
2019-03-08T09:03:37.731Z,99.99
2019-03-08T09:04:37.681Z,99.99
2019-03-08T09:05:37.695Z,99.99
2019-03-08T09:06:37.716Z,99.99
2019-03-08T09:07:37.739Z,99.99
2019-03-08T09:08:38.392Z,99.99
2019-03-08T09:09:37.746Z,99.99
2019-03-08T09:10:37.759Z,99.99
2019-03-08T09:11:44.590Z,99.99
2019-03-08T09:12:37.777Z,99.99
2019-03-08T09:13:38.148Z,99.99
2019-03-08T09:14:38.597Z,99.99
2019-03-08T09:15:37.822Z,99.99
2019-03-08T09:16:37.825Z,99.99
2019-03-08T09:17:37.837Z,99.99
2019-03-08T09:18:37.885Z,99.99
2019-03-08T09:19:37.889Z,99.99
2019-03-08T09:20:37.867Z,99.99
2019-03-08T09:21:37.893Z,99.99
2019-03-08T09:22:37.982Z,99.99
2019-03-08T09:23:37.916Z,99.99
2019-03-08T09:24:37.919Z,99.99
2019-03-08T09:25:37.931Z,99.99
2019-03-08T09:26:37.992Z,99.99
2019-03-08T09:27:37.958Z,99.99
2019-03-08T09:28:37.980Z,99.99
2019-03-08T09:29:41.325Z,99.99
2019-03-08T09:30:37.998Z,99.99
2019-03-08T09:31:38.107Z,99.99
2019-03-08T09:32:38.017Z,99.99
2019-03-08T09:33:38.039Z,99.99
2019-03-08T09:34:38.273Z,99.99
2019-03-08T09:35:38.045Z,99.99
2019-03-08T09:36:38.082Z,99.99
2019-03-08T09:37:38.071Z,99.99
2019-03-08T09:38:38.082Z,99.99
2019-03-08T09:39:38.104Z,99.99
2019-03-08T09:40:38.114Z,99.99
2019-03-08T09:41:38.135Z,99.99
2019-03-08T09:42:38.308Z,99.99
2019-03-08T09:43:38.151Z,99.99
2019-03-08T09:44:38.160Z,99.99
2019-03-08T09:45:38.167Z,99.99
2019-03-08T09:46:38.180Z,99.99
2019-03-08T09:47:38.204Z,99.99
2019-03-08T09:48:38.331Z,99.99
2019-03-08T09:49:38.225Z,99.99
2019-03-08T09:50:38.229Z,99.99
2019-03-08T09:51:38.247Z,99.99
2019-03-08T09:52:38.275Z,99.99
2019-03-08T09:53:38.250Z,99.99
2019-03-08T09:54:38.265Z,99.99
2019-03-08T09:55:38.289Z,99.99
2019-03-08T09:56:38.294Z,99.99
2019-03-08T09:57:38.300Z,99.99
2019-03-08T09:58:38.342Z,99.99
2019-03-08T09:59:38.354Z,99.99
2019-03-08T10:00:38.340Z,99.99
2019-03-08T10:01:38.346Z,99.99
2019-03-08T10:02:38.365Z,99.99
2019-03-08T10:03:38.370Z,99.99
2019-03-08T10:04:38.390Z,99.65
2019-03-08T10:05:38.416Z,99.27
2019-03-08T10:06:38.824Z,97.74
2019-03-08T10:07:38.441Z,97.74
2019-03-08T10:08:38.466Z,97.84
2019-03-08T10:09:38.442Z,97.74
2019-03-08T10:10:38.462Z,95.84
2019-03-08T10:11:38.466Z,95.32
2019-03-08T10:12:38.485Z,91.94
2019-03-08T10:13:38.494Z,90.99
2019-03-08T10:14:38.499Z,91.89
2019-03-08T10:15:38.541Z,89.70
2019-03-08T10:16:38.534Z,90.08
2019-03-08T10:17:38.535Z,89.89
2019-03-08T10:18:40.166Z,89.03
2019-03-08T10:19:38.573Z,87.41
2019-03-08T10:20:38.584Z,87.41
2019-03-08T10:21:38.593Z,85.70
2019-03-08T10:22:38.600Z,83.70
2019-03-08T10:23:38.631Z,83.41
2019-03-08T10:24:38.629Z,82.23
2019-03-08T10:25:39.553Z,82.42
2019-03-08T10:26:39.497Z,82.84
2019-03-08T10:27:38.665Z,82.61
2019-03-08T10:28:38.685Z,83.94
2019-03-08T10:29:38.695Z,84.61
2019-03-08T10:30:38.704Z,85.28
2019-03-08T10:31:38.722Z,83.75
2019-03-08T10:32:38.762Z,83.18
2019-03-08T10:33:46.175Z,82.27
2019-03-08T10:34:38.774Z,82.56
2019-03-08T10:35:38.804Z,81.98
2019-03-08T10:36:38.857Z,82.46
2019-03-08T10:37:38.802Z,82.61
2019-03-08T10:38:38.803Z,82.18
2019-03-08T10:39:38.948Z,82.27
2019-03-08T10:40:38.843Z,82.56
2019-03-08T10:41:38.847Z,82.56
2019-03-08T10:43:42.263Z,81.79
2019-03-08T10:44:39.918Z,81.66
2019-03-08T10:45:39.926Z,82.32
2019-03-08T10:46:39.255Z,82.14
2019-03-08T10:50:39.338Z,82.08
2019-03-08T10:51:39.025Z,82.37
2019-03-08T10:52:38.988Z,81.79
2019-03-08T10:53:39.036Z,81.60
2019-03-08T10:54:39.292Z,81.51
2019-03-08T10:55:40.661Z,81.79
2019-03-08T10:56:39.079Z,81.13
2019-03-08T10:57:39.994Z,80.46
2019-03-08T10:58:39.431Z,80.84
2019-03-08T10:59:39.071Z,80.60
2019-03-08T11:00:39.080Z,80.79
2019-03-08T11:01:39.133Z,79.70
2019-03-08T11:02:39.122Z,80.18
2019-03-08T11:03:39.114Z,80.46
2019-03-08T11:04:39.147Z,80.36
2019-03-08T11:05:39.147Z,81.32
2019-03-08T11:06:39.148Z,81.23
2019-03-08T11:07:39.171Z,81.51
2019-03-08T11:08:39.216Z,81.23
2019-03-08T11:09:39.186Z,81.84
2019-03-08T11:10:39.203Z,81.36
2019-03-08T11:11:39.283Z,82.12
2019-03-08T11:12:39.691Z,84.69
2019-03-08T11:13:43.307Z,85.55
2019-03-08T11:14:39.262Z,87.23
2019-03-08T11:15:39.276Z,88.12
2019-03-08T11:16:39.279Z,89.13
2019-03-08T11:17:39.338Z,88.84
2019-03-08T11:18:39.316Z,90.46
2019-03-08T11:19:39.373Z,90.99
2019-03-08T11:20:39.326Z,92.41
2019-03-08T11:21:39.347Z,93.08
2019-03-08T11:22:39.355Z,92.70
2019-03-08T11:23:39.499Z,92.89
2019-03-08T11:24:39.396Z,91.94
2019-03-08T11:25:39.394Z,92.55
2019-03-08T11:26:40.733Z,92.84
2019-03-08T11:27:39.497Z,92.65
2019-03-08T11:28:39.522Z,91.99
2019-03-08T11:29:39.449Z,92.03
2019-03-08T11:30:39.465Z,93.18
2019-03-08T11:31:39.481Z,93.27
2019-03-08T11:32:39.487Z,93.37
2019-03-08T11:33:39.506Z,93.55
2019-03-08T11:34:39.563Z,92.60
2019-03-08T11:35:39.839Z,93.08
2019-03-08T11:36:40.923Z,93.60
2019-03-08T11:37:39.631Z,93.41
2019-03-08T11:39:39.578Z,92.55
2019-03-08T11:40:39.593Z,90.89
2019-03-08T11:41:39.607Z,90.89
2019-03-08T11:42:39.622Z,91.60
2019-03-08T11:43:39.638Z,92.08
2019-03-08T11:44:39.706Z,92.84
2019-03-08T11:45:39.699Z,92.08
2019-03-08T11:46:39.679Z,93.13
2019-03-08T11:47:39.704Z,92.55
2019-03-08T11:48:39.695Z,91.89
2019-03-08T11:49:39.719Z,93.13
2019-03-08T11:50:39.722Z,93.41
2019-03-08T11:51:39.792Z,93.37
2019-03-08T11:52:39.747Z,93.94
2019-03-08T11:53:39.763Z,93.94
2019-03-08T11:54:41.074Z,95.46
2019-03-08T11:55:39.786Z,95.84
2019-03-08T11:56:39.799Z,97.08
2019-03-08T11:57:39.812Z,99.17
2019-03-08T11:58:39.828Z,99.99
2019-03-08T11:59:39.849Z,99.99
2019-03-08T12:00:39.849Z,99.99
2019-03-08T12:01:40.011Z,99.99
2019-03-08T12:02:40.025Z,99.99
2019-03-08T12:03:39.896Z,99.99
2019-03-08T12:04:40.866Z,99.99
2019-03-08T12:05:39.921Z,99.99
2019-03-08T12:06:39.931Z,99.99
2019-03-08T12:07:39.975Z,99.99
2019-03-08T12:08:40.017Z,99.99
2019-03-08T12:09:40.392Z,99.99
2019-03-08T12:10:39.978Z,99.99
2019-03-08T12:11:40.017Z,99.99
2019-03-08T12:12:40.019Z,99.99
2019-03-08T12:13:40.022Z,99.99
2019-03-08T12:14:40.299Z,99.99
2019-03-08T12:15:40.042Z,99.99
2019-03-08T12:16:40.050Z,99.99
2019-03-08T12:17:40.067Z,99.99
2019-03-08T12:18:40.150Z,99.99
2019-03-08T12:19:40.116Z,99.99
2019-03-08T12:20:40.098Z,99.99
2019-03-08T12:21:40.135Z,99.99
2019-03-08T12:23:40.140Z,99.99
2019-03-08T12:24:40.148Z,99.99
2019-03-08T12:25:40.889Z,99.99
2019-03-08T12:26:40.272Z,99.99
2019-03-08T12:27:40.196Z,99.99
2019-03-08T12:28:40.207Z,99.99
2019-03-08T12:29:40.209Z,99.99
2019-03-08T12:30:40.220Z,99.99
2019-03-08T12:31:40.270Z,99.99
2019-03-08T12:32:40.261Z,99.99
2019-03-08T12:33:40.261Z,99.99
2019-03-08T12:34:40.275Z,99.99
2019-03-08T12:35:40.293Z,99.99
2019-03-08T12:36:40.298Z,99.99
2019-03-08T12:37:40.327Z,99.99
2019-03-08T12:38:41.303Z,99.99
2019-03-08T12:39:40.340Z,99.99
2019-03-08T12:40:40.508Z,99.99
2019-03-08T12:41:40.367Z,99.99
2019-03-08T12:42:40.383Z,99.99
2019-03-08T12:43:40.401Z,99.99
2019-03-08T12:44:40.396Z,99.99
2019-03-08T12:45:40.410Z,98.93
2019-03-08T12:46:40.425Z,99.02
2019-03-08T12:47:40.456Z,99.99
2019-03-08T12:48:40.505Z,99.99
2019-03-08T12:49:40.467Z,99.98
2019-03-08T12:50:40.475Z,99.99
2019-03-08T12:51:40.496Z,98.93
2019-03-08T12:52:40.645Z,99.99
2019-03-08T12:53:40.549Z,99.99
2019-03-08T12:54:40.527Z,99.99
2019-03-08T12:55:40.658Z,99.99
2019-03-08T12:56:40.549Z,99.99
2019-03-08T12:57:40.579Z,99.99
2019-03-08T12:58:40.574Z,99.99
2019-03-08T12:59:40.590Z,99.99
2019-03-08T13:00:40.597Z,99.99
2019-03-08T13:01:42.641Z,99.99
2019-03-08T13:02:40.631Z,99.99
2019-03-08T13:03:40.634Z,99.99
2019-03-08T13:04:40.695Z,99.99
2019-03-08T13:05:40.861Z,99.99
2019-03-08T13:06:40.676Z,99.99
2019-03-08T13:07:40.690Z,99.99
2019-03-08T13:08:40.705Z,99.99
2019-03-08T13:09:40.713Z,99.99
2019-03-08T13:10:40.724Z,99.99
2019-03-08T13:11:40.848Z,99.99
2019-03-08T13:12:40.753Z,99.99
2019-03-08T13:13:40.771Z,99.99
2019-03-08T13:14:40.774Z,99.99